createdAt,value
2022-10-05T00:01:16.190Z,4.40
2022-10-05T00:03:48.566Z,4.15
2022-10-05T00:06:27.104Z,3.60
2022-10-05T00:08:54.947Z,3.83
2022-10-05T00:11:26.625Z,4.10
2022-10-05T00:13:54.536Z,4.05
2022-10-05T00:16:22.226Z,4.20
2022-10-05T00:18:51.745Z,3.65
2022-10-05T00:21:27.800Z,4.32
2022-10-05T00:23:58.342Z,3.97
2022-10-05T00:26:33.368Z,4.65
2022-10-05T00:29:03.122Z,4.28
2022-10-05T00:31:39.238Z,5.25
2022-10-05T00:34:07.090Z,4.70
2022-10-05T00:36:34.267Z,4.25
2022-10-05T00:39:06.888Z,4.30
2022-10-05T00:42:11.576Z,4.25
2022-10-05T00:45:03.029Z,4.22
2022-10-05T00:47:55.543Z,4.25
2022-10-05T00:50:53.199Z,4.75
2022-10-05T00:53:30.825Z,4.60
2022-10-05T00:56:17.368Z,6.50
2022-10-05T00:59:23.968Z,4.72
2022-10-05T01:02:15.938Z,4.93
2022-10-05T01:05:16.145Z,5.07
2022-10-05T01:08:03.613Z,4.90
2022-10-05T01:10:49.715Z,4.50
2022-10-05T01:13:28.992Z,4.70
2022-10-05T01:16:09.750Z,5.15
2022-10-05T01:18:52.054Z,4.80
2022-10-05T01:21:26.233Z,3.92
2022-10-05T01:24:11.556Z,4.93
2022-10-05T01:27:12.312Z,4.32
2022-10-05T01:30:12.789Z,4.53
2022-10-05T01:33:15.256Z,4.40
2022-10-05T01:36:15.044Z,4.90
2022-10-05T01:38:56.319Z,5.05
2022-10-05T01:41:35.773Z,4.65
2022-10-05T01:44:12.024Z,4.40
2022-10-05T01:46:52.395Z,3.78
2022-10-05T01:49:45.448Z,4.57
2022-10-05T01:52:31.497Z,5.47
2022-10-05T01:55:27.538Z,4.22
2022-10-05T01:58:20.133Z,5.25
2022-10-05T02:01:16.013Z,4.60
2022-10-05T02:03:59.607Z,4.65
2022-10-05T02:06:34.577Z,4.82
2022-10-05T02:09:14.211Z,5.50
2022-10-05T02:11:46.325Z,6.50
2022-10-05T02:14:23.245Z,5.93
2022-10-05T02:17:01.230Z,5.65
2022-10-05T02:19:35.806Z,5.40
2022-10-05T02:22:21.216Z,4.95
2022-10-05T02:24:54.593Z,5.03
2022-10-05T02:27:34.325Z,5.32
2022-10-05T02:30:14.220Z,5.57
2022-10-05T02:33:06.870Z,5.65
2022-10-05T02:35:37.025Z,5.95
2022-10-05T02:38:24.200Z,6.75
2022-10-05T02:40:57.737Z,6.25
2022-10-05T02:44:02.718Z,5.80
2022-10-05T02:46:57.724Z,5.70
2022-10-05T02:49:55.142Z,6.20
2022-10-05T02:52:37.132Z,6.10
2022-10-05T02:55:24.808Z,6.78
2022-10-05T02:58:11.822Z,6.25
2022-10-05T03:01:00.413Z,6.78
2022-10-05T03:03:32.460Z,5.78
2022-10-05T03:06:08.120Z,6.60
2022-10-05T03:08:50.561Z,5.95
2022-10-05T03:11:30.219Z,5.47
2022-10-05T03:14:18.752Z,5.55
2022-10-05T03:17:07.089Z,5.75
2022-10-05T03:19:59.098Z,5.72
2022-10-05T03:22:56.374Z,4.85
2022-10-05T03:25:58.117Z,5.60
2022-10-05T03:28:41.538Z,5.28
2022-10-05T03:31:52.318Z,4.93
2022-10-05T03:34:46.076Z,5.10
2022-10-05T03:37:43.027Z,4.63
2022-10-05T03:40:26.452Z,4.90
2022-10-05T03:43:21.611Z,5.57
2022-10-05T03:45:56.381Z,5.38
2022-10-05T03:48:32.536Z,5.53
2022-10-05T03:51:15.158Z,4.90
2022-10-05T03:53:51.127Z,5.82
2022-10-05T03:56:54.940Z,5.50
2022-10-05T03:59:36.210Z,6.03
2022-10-05T04:02:13.437Z,5.38
2022-10-05T04:05:05.611Z,5.97
2022-10-05T04:07:48.298Z,6.57
2022-10-05T04:10:26.770Z,6.60
2022-10-05T04:13:21.890Z,6.28
2022-10-05T04:15:58.005Z,5.45
2022-10-05T04:18:41.125Z,6.63
2022-10-05T04:21:24.218Z,5.65
2022-10-05T04:24:18.723Z,6.22
2022-10-05T04:26:55.843Z,6.63
2022-10-05T04:29:53.079Z,6.60
2022-10-05T04:32:43.626Z,5.90
2022-10-05T04:35:31.354Z,6.13
2022-10-05T04:38:48.013Z,5.93
2022-10-05T04:41:40.161Z,6.28
2022-10-05T04:44:22.810Z,6.05
2022-10-05T04:47:26.082Z,7.75
2022-10-05T04:50:25.143Z,5.70
2022-10-05T04:53:40.257Z,6.07
2022-10-05T04:56:39.168Z,6.15
2022-10-05T04:59:17.575Z,6.18
2022-10-05T05:01:54.577Z,6.20
2022-10-05T05:04:25.833Z,6.00
2022-10-05T05:07:09.599Z,5.75
2022-10-05T05:10:17.448Z,5.97
2022-10-05T05:13:02.100Z,6.43
2022-10-05T05:15:36.545Z,6.25
2022-10-05T05:18:25.723Z,6.20
2022-10-05T05:21:21.027Z,5.90
2022-10-05T05:24:03.367Z,5.82
2022-10-05T05:26:53.340Z,5.60
2022-10-05T05:29:35.634Z,5.43
2022-10-05T05:32:09.238Z,5.57
2022-10-05T05:34:48.542Z,5.95
2022-10-05T05:37:40.199Z,5.70
2022-10-05T05:40:12.993Z,6.00
2022-10-05T05:43:08.596Z,5.20
2022-10-05T05:46:02.670Z,5.22
2022-10-05T05:51:12.402Z,5.43
2022-10-05T05:53:49.909Z,5.95
2022-10-05T05:56:28.018Z,5.65
2022-10-05T05:59:36.867Z,5.55
2022-10-05T06:02:12.571Z,6.07
2022-10-05T06:04:57.073Z,6.43
2022-10-05T06:07:31.361Z,5.50
2022-10-05T06:10:32.264Z,5.90
2022-10-05T06:13:41.128Z,5.90
2022-10-05T06:19:29.139Z,5.88
2022-10-05T06:22:19.784Z,5.63
2022-10-05T06:25:07.234Z,5.60
2022-10-05T06:28:17.539Z,6.38
2022-10-05T06:31:11.047Z,6.68
2022-10-05T06:33:56.771Z,6.95
2022-10-05T06:36:50.911Z,6.82
2022-10-05T06:39:43.968Z,6.10
2022-10-05T06:42:51.131Z,7.22
2022-10-05T06:46:04.051Z,6.65
2022-10-05T06:49:23.614Z,6.50
2022-10-05T06:52:26.766Z,6.45
2022-10-05T06:55:18.794Z,6.97
2022-10-05T06:57:46.977Z,6.80
2022-10-05T07:00:28.246Z,7.15
2022-10-05T07:03:35.248Z,7.78
2022-10-05T07:06:14.918Z,7.57
2022-10-05T07:09:12.244Z,7.97
2022-10-05T07:12:03.568Z,9.70
2022-10-05T07:14:53.926Z,13.10
2022-10-05T07:17:23.855Z,11.93
2022-10-05T07:20:16.331Z,7.70
2022-10-05T07:23:06.199Z,7.45
2022-10-05T07:25:39.416Z,7.13
2022-10-05T07:28:32.793Z,6.80
2022-10-05T07:31:52.318Z,6.82
2022-10-05T07:34:27.290Z,6.55
2022-10-05T07:37:46.557Z,6.80
2022-10-05T07:40:51.339Z,6.63
2022-10-05T07:43:22.414Z,7.45
2022-10-05T07:45:59.473Z,6.97
2022-10-05T07:48:53.987Z,6.88
2022-10-05T07:51:41.535Z,6.80
2022-10-05T07:54:28.856Z,7.22
2022-10-05T07:57:00.169Z,5.43
2022-10-05T07:59:44.137Z,6.20
2022-10-05T08:02:44.807Z,5.63
2022-10-05T08:05:26.608Z,5.82
2022-10-05T08:08:36.006Z,5.30
2022-10-05T08:11:27.674Z,5.43
2022-10-05T08:14:14.349Z,4.97
2022-10-05T08:16:41.431Z,4.55
2022-10-05T08:19:26.583Z,4.95
2022-10-05T08:22:04.567Z,4.90
2022-10-05T08:24:40.803Z,5.40
2022-10-05T08:27:13.261Z,4.53
2022-10-05T08:29:56.009Z,4.80
2022-10-05T08:32:26.762Z,5.30
2022-10-05T08:35:02.280Z,5.20
2022-10-05T08:37:41.783Z,4.80
2022-10-05T08:40:37.387Z,5.32
2022-10-05T08:43:10.576Z,4.90
2022-10-05T08:45:53.530Z,4.25
2022-10-05T08:48:39.109Z,4.90
2022-10-05T08:51:24.097Z,5.13
2022-10-05T08:54:24.841Z,6.63
2022-10-05T08:56:55.066Z,7.10
2022-10-05T08:59:53.597Z,7.53
2022-10-05T09:02:59.206Z,6.18
2022-10-05T09:06:00.474Z,6.43
2022-10-05T09:08:36.566Z,4.80
2022-10-05T09:11:40.841Z,4.50
2022-10-05T09:14:43.193Z,3.38
2022-10-05T09:17:19.665Z,4.05
2022-10-05T09:20:16.715Z,3.20
2022-10-05T09:22:46.959Z,3.20
2022-10-05T09:25:25.560Z,3.13
2022-10-05T09:27:57.788Z,6.10
2022-10-05T09:31:07.255Z,3.67
2022-10-05T09:33:53.350Z,4.53
2022-10-05T09:36:58.921Z,3.67
2022-10-05T09:39:44.495Z,6.60
2022-10-05T09:42:45.607Z,5.68
2022-10-05T09:45:31.533Z,3.72
2022-10-05T09:48:27.358Z,3.70
2022-10-05T09:51:14.698Z,3.92
2022-10-05T09:54:29.442Z,2.35
2022-10-05T09:57:37.281Z,4.25
2022-10-05T10:00:27.778Z,2.00
2022-10-05T10:03:43.104Z,2.25
2022-10-05T10:06:25.738Z,2.22
2022-10-05T10:09:02.052Z,2.17
2022-10-05T10:11:29.559Z,2.20
2022-10-05T10:14:20.811Z,2.00
2022-10-05T10:17:00.527Z,2.05
2022-10-05T10:19:43.008Z,1.98
2022-10-05T10:22:25.365Z,1.70
2022-10-05T10:25:05.117Z,1.73
2022-10-05T10:27:53.158Z,2.58
2022-10-05T10:30:39.057Z,1.67
2022-10-05T10:33:28.311Z,2.70
2022-10-05T10:36:29.396Z,1.85
2022-10-05T10:39:13.804Z,1.70
2022-10-05T10:41:51.363Z,2.20
2022-10-05T10:44:58.596Z,1.40
2022-10-05T10:47:29.081Z,2.10
2022-10-05T10:50:23.550Z,2.03
2022-10-05T10:53:10.597Z,1.33
2022-10-05T10:56:08.978Z,1.92
2022-10-05T10:58:45.374Z,1.63
2022-10-05T11:01:31.895Z,1.50
2022-10-05T11:04:09.489Z,1.83
2022-10-05T11:07:02.821Z,1.40
2022-10-05T11:10:08.991Z,1.70
2022-10-05T11:13:05.527Z,1.55
2022-10-05T11:18:48.994Z,1.50
2022-10-05T11:21:16.007Z,1.70
2022-10-05T11:24:01.940Z,2.30
2022-10-05T11:26:41.279Z,1.80
2022-10-05T11:29:45.754Z,2.08
2022-10-05T11:32:31.564Z,2.15
2022-10-05T11:35:11.005Z,2.05
2022-10-05T11:37:59.119Z,1.30
2022-10-05T11:40:44.617Z,1.30
2022-10-05T11:43:26.514Z,1.60
2022-10-05T11:46:29.087Z,1.70
2022-10-05T11:49:13.199Z,2.22
2022-10-05T11:52:15.576Z,1.80
2022-10-05T11:55:11.964Z,2.30
2022-10-05T11:57:59.482Z,2.17
2022-10-05T12:00:45.185Z,1.45
2022-10-05T12:03:33.442Z,1.30
2022-10-05T12:06:36.893Z,1.52
2022-10-05T12:09:25.157Z,2.28
2022-10-05T12:12:08.583Z,1.58
2022-10-05T12:14:59.076Z,1.90
2022-10-05T12:17:48.693Z,1.75
2022-10-05T12:20:31.926Z,1.83
2022-10-05T12:25:44.434Z,1.95
2022-10-05T12:28:17.746Z,2.03
2022-10-05T12:31:12.086Z,1.48
2022-10-05T12:34:07.246Z,1.63
2022-10-05T12:37:05.695Z,2.05
2022-10-05T12:42:51.840Z,1.77
2022-10-05T12:45:54.475Z,1.63
2022-10-05T12:49:00.158Z,1.73
2022-10-05T12:51:56.265Z,1.55
2022-10-05T12:54:44.028Z,1.73
2022-10-05T12:57:21.345Z,1.80
2022-10-05T13:00:00.428Z,2.15
2022-10-05T13:02:43.736Z,2.00
2022-10-05T13:05:11.036Z,1.73
2022-10-05T13:08:11.305Z,1.77
2022-10-05T13:10:52.517Z,1.42
2022-10-05T13:13:52.203Z,1.90
2022-10-05T13:16:50.192Z,1.83
2022-10-05T13:19:40.092Z,1.63
2022-10-05T13:22:31.046Z,1.63
2022-10-05T13:25:35.605Z,1.60
2022-10-05T13:28:19.115Z,1.60
2022-10-05T13:31:11.662Z,1.98
2022-10-05T13:34:38.512Z,1.90
2022-10-05T13:37:43.267Z,1.70
2022-10-05T13:40:30.347Z,1.63
2022-10-05T13:43:09.646Z,2.08
2022-10-05T13:45:57.266Z,2.20
2022-10-05T13:48:57.666Z,1.58
2022-10-05T13:51:53.211Z,1.75
2022-10-05T13:55:10.492Z,1.30
2022-10-05T13:58:17.677Z,2.05
2022-10-05T14:01:19.298Z,1.45
2022-10-05T14:04:34.174Z,1.40
2022-10-05T14:07:36.725Z,1.80
2022-10-05T14:10:16.495Z,1.48
2022-10-05T14:13:27.800Z,1.95
2022-10-05T14:16:27.321Z,1.63
2022-10-05T14:19:35.589Z,2.13
2022-10-05T14:22:27.439Z,2.08
2022-10-05T14:25:23.441Z,1.80
2022-10-05T14:28:22.881Z,1.90
2022-10-05T14:30:59.776Z,2.13
2022-10-05T14:33:34.578Z,2.60
2022-10-05T14:36:27.982Z,1.67
2022-10-05T14:41:49.944Z,1.20
2022-10-05T14:44:36.283Z,1.80
2022-10-05T14:50:36.138Z,1.77
2022-10-05T14:53:04.133Z,1.67
2022-10-05T14:55:55.512Z,1.63
2022-10-05T14:58:57.738Z,2.33
2022-10-05T15:01:42.284Z,1.75
2022-10-05T15:04:42.425Z,0.93
2022-10-05T15:07:19.548Z,1.40
2022-10-05T15:10:22.263Z,1.10
2022-10-05T15:13:11.504Z,1.88
2022-10-05T15:15:55.412Z,1.67
2022-10-05T15:19:06.743Z,1.33
2022-10-05T15:22:07.580Z,1.58
2022-10-05T15:25:02.333Z,1.52
2022-10-05T15:28:01.602Z,1.25
2022-10-05T15:30:35.203Z,1.92
2022-10-05T15:33:05.697Z,2.15
2022-10-05T15:35:57.405Z,1.95
2022-10-05T15:38:27.895Z,1.63
2022-10-05T15:40:59.025Z,1.23
2022-10-05T15:43:41.949Z,2.03
2022-10-05T15:46:34.385Z,1.17
2022-10-05T15:49:14.838Z,1.65
2022-10-05T15:51:53.348Z,1.10
2022-10-05T15:54:44.045Z,1.20
2022-10-05T15:57:38.955Z,1.60
2022-10-05T16:00:11.640Z,2.10
2022-10-05T16:03:06.693Z,1.40
2022-10-05T16:06:01.460Z,1.40
2022-10-05T16:08:50.272Z,1.65
2022-10-05T16:11:29.473Z,1.63
2022-10-05T16:14:28.690Z,2.75
2022-10-05T16:17:27.548Z,2.40
2022-10-05T16:20:26.045Z,3.25
2022-10-05T16:22:53.481Z,2.78
2022-10-05T16:25:26.811Z,1.90
2022-10-05T16:30:55.559Z,1.63
2022-10-05T16:33:59.478Z,1.85
2022-10-05T16:36:53.572Z,1.33
2022-10-05T16:39:58.016Z,1.92
2022-10-05T16:42:35.361Z,2.15
2022-10-05T16:45:24.136Z,1.73
2022-10-05T16:48:13.511Z,1.90
2022-10-05T16:50:47.200Z,1.77
2022-10-05T16:53:25.333Z,1.38
2022-10-05T16:55:58.831Z,1.75
2022-10-05T17:01:37.373Z,2.17
2022-10-05T17:04:26.010Z,1.98
2022-10-05T17:07:25.458Z,2.00
2022-10-05T17:10:03.655Z,1.90
2022-10-05T17:12:43.033Z,1.95
2022-10-05T17:15:32.559Z,1.85
2022-10-05T17:18:11.421Z,2.03
2022-10-05T17:20:44.491Z,1.98
2022-10-05T17:23:31.471Z,1.45
2022-10-05T17:26:27.431Z,1.50
2022-10-05T17:29:10.280Z,2.75
2022-10-05T17:32:00.309Z,2.60
2022-10-05T17:34:37.540Z,2.10
2022-10-05T17:37:39.753Z,7.25
2022-10-05T17:40:37.612Z,3.60
2022-10-05T17:43:25.546Z,4.70
2022-10-05T17:46:03.644Z,2.75
2022-10-05T17:48:49.475Z,2.40
2022-10-05T17:51:50.435Z,2.42
2022-10-05T17:54:43.016Z,1.52
2022-10-05T17:57:16.780Z,1.80
2022-10-05T18:00:06.252Z,2.00
2022-10-05T18:02:43.118Z,1.48
2022-10-05T18:05:26.142Z,1.60
2022-10-05T18:08:12.126Z,1.77
2022-10-05T18:11:07.960Z,2.05
2022-10-05T18:13:44.121Z,2.15
2022-10-05T18:16:54.610Z,1.58
2022-10-05T18:19:23.342Z,2.28
2022-10-05T18:22:03.909Z,1.73
2022-10-05T18:24:44.486Z,3.38
2022-10-05T18:27:36.769Z,5.63
2022-10-05T18:30:08.106Z,2.97
2022-10-05T18:32:51.915Z,2.33
2022-10-05T18:35:28.530Z,3.13
2022-10-05T18:38:05.472Z,2.60
2022-10-05T18:41:10.234Z,2.30
2022-10-05T18:43:51.453Z,3.63
2022-10-05T18:46:39.005Z,2.80
2022-10-05T18:49:32.843Z,3.60
2022-10-05T18:55:21.114Z,3.05
2022-10-05T18:57:57.687Z,3.60
2022-10-05T19:00:52.142Z,2.78
2022-10-05T19:03:33.572Z,3.35
2022-10-05T19:06:15.782Z,2.83
2022-10-05T19:09:04.533Z,2.88
2022-10-05T19:11:56.731Z,3.33
2022-10-05T19:14:51.523Z,2.90
2022-10-05T19:17:32.125Z,4.15
2022-10-05T19:20:38.688Z,3.13
2022-10-05T19:23:24.268Z,3.15
2022-10-05T19:26:22.945Z,3.72
2022-10-05T19:28:58.829Z,3.58
2022-10-05T19:31:56.973Z,3.47
2022-10-05T19:35:00.870Z,3.47
2022-10-05T19:38:00.939Z,3.95
2022-10-05T19:41:18.713Z,4.07
2022-10-05T19:44:05.870Z,4.20
2022-10-05T19:47:11.023Z,3.70
2022-10-05T19:49:56.888Z,4.10
2022-10-05T19:52:49.780Z,3.88
2022-10-05T19:55:42.381Z,4.30
2022-10-05T19:58:34.732Z,3.90
2022-10-05T20:01:08.002Z,4.50
2022-10-05T20:03:49.929Z,4.03
2022-10-05T20:06:28.763Z,3.70
2022-10-05T20:09:21.628Z,4.60
2022-10-05T20:11:54.715Z,3.95
2022-10-05T20:14:58.570Z,3.58
2022-10-05T20:17:51.362Z,3.40
2022-10-05T20:20:37.149Z,3.63
2022-10-05T20:23:29.349Z,3.80
2022-10-05T20:26:25.430Z,3.15
2022-10-05T20:28:56.403Z,2.90
2022-10-05T20:31:23.964Z,2.97
2022-10-05T20:33:55.871Z,2.83
2022-10-05T20:36:27.021Z,3.38
2022-10-05T20:39:01.472Z,3.00
2022-10-05T20:41:28.807Z,2.65
2022-10-05T20:43:56.191Z,3.00
2022-10-05T20:46:23.499Z,3.30
2022-10-05T20:48:53.022Z,2.70
2022-10-05T20:51:21.138Z,2.58
2022-10-05T20:53:48.317Z,2.70
2022-10-05T20:56:21.876Z,2.97
2022-10-05T20:58:50.235Z,2.97
2022-10-05T21:01:23.392Z,2.85
2022-10-05T21:03:50.998Z,2.78
2022-10-05T21:06:18.648Z,2.88
2022-10-05T21:08:47.641Z,3.00
2022-10-05T21:11:17.942Z,2.92
2022-10-05T21:13:47.078Z,2.40
2022-10-05T21:16:19.819Z,2.60
2022-10-05T21:18:51.187Z,3.80
2022-10-05T21:21:19.118Z,2.70
2022-10-05T21:23:58.877Z,2.35
2022-10-05T21:26:45.568Z,2.72
2022-10-05T21:29:13.587Z,2.80
2022-10-05T21:31:41.823Z,3.03
2022-10-05T21:34:11.822Z,3.17
2022-10-05T21:36:38.844Z,2.65
2022-10-05T21:39:06.076Z,2.72
2022-10-05T21:41:34.091Z,2.75
2022-10-05T21:44:01.562Z,2.83
2022-10-05T21:46:30.238Z,2.67
2022-10-05T21:48:57.710Z,2.90
2022-10-05T21:51:26.848Z,3.33
2022-10-05T21:54:01.995Z,3.33
2022-10-05T21:56:37.280Z,2.97
2022-10-05T21:59:14.058Z,3.08
2022-10-05T22:01:41.468Z,3.40
2022-10-05T22:04:08.895Z,2.90
2022-10-05T22:06:40.978Z,2.75
2022-10-05T22:09:08.487Z,3.78
2022-10-05T22:11:35.707Z,2.95
2022-10-05T22:14:05.935Z,3.05
2022-10-05T22:16:37.635Z,3.53
2022-10-05T22:19:08.565Z,3.38
2022-10-05T22:21:42.173Z,3.28
2022-10-05T22:24:12.219Z,3.10
2022-10-05T22:26:43.151Z,2.42
2022-10-05T22:29:13.896Z,2.72
2022-10-05T22:31:42.498Z,2.88
2022-10-05T22:34:09.699Z,4.18
2022-10-05T22:36:37.692Z,2.85
2022-10-05T22:39:08.626Z,2.75
2022-10-05T22:41:35.887Z,2.40
2022-10-05T22:44:13.451Z,3.10
2022-10-05T22:46:40.710Z,2.40
2022-10-05T22:49:07.999Z,2.45
2022-10-05T22:51:38.730Z,3.13
2022-10-05T22:54:10.043Z,3.25
2022-10-05T22:56:37.692Z,2.88
2022-10-05T22:59:04.962Z,2.75
2022-10-05T23:01:32.363Z,3.05
2022-10-05T23:04:02.392Z,3.15
2022-10-05T23:06:30.556Z,3.10
2022-10-05T23:08:58.310Z,2.58
2022-10-05T23:11:27.888Z,2.70
2022-10-05T23:13:57.101Z,2.28
2022-10-05T23:16:27.318Z,2.92
2022-10-05T23:18:55.326Z,2.90
2022-10-05T23:21:24.459Z,2.80
2022-10-05T23:23:51.725Z,3.10
2022-10-05T23:26:22.149Z,3.15
2022-10-05T23:28:50.890Z,2.90
2022-10-05T23:31:25.136Z,2.70
2022-10-05T23:33:53.833Z,2.60
2022-10-05T23:36:32.582Z,2.63
2022-10-05T23:39:00.591Z,2.60
2022-10-05T23:41:27.848Z,2.08
2022-10-05T23:43:55.442Z,3.00
2022-10-05T23:46:24.048Z,2.67
2022-10-05T23:48:51.533Z,2.22
2022-10-05T23:51:19.191Z,3.33
2022-10-05T23:53:46.557Z,2.85
2022-10-05T23:56:13.853Z,2.40
2022-10-05T23:58:41.437Z,2.42
